ITY1613 LIRF-LIBD
Flight info
| Callsign | ITY1613 |
|---|---|
| Flight time | 0h 41m |
| Altitude | 31000 |
| Route | SIPRO DCT EKTOL DCT DOGUS |
| Aircraft | A320/M-SDE3FGHIRWY/LB1 |
Departure
| Time | 2026-05-07 06:47 |
|---|---|
| Airport | Rome–Fiumicino Leonardo da Vinci International Airport (LIRF) |
Arrival
| Time | 2026-05-07 07:28 |
|---|---|
| Airport | Bari Karol Wojtyła International Airport (LIBD) |
| Time | Latitude | Longitude | Altitude | Speed | Heading |
|---|---|---|---|---|---|
| 2026-05-07 06:31 | 41.79755 | 12.25506 | 14 ft | 0 kts | 115° |
| 2026-05-07 06:38 | 41.79757 | 12.25502 | 14 ft | 3 kts | 115° |
| 2026-05-07 06:38 | 41.79768 | 12.25470 | 17 ft | 4 kts | 115° |
| 2026-05-07 06:38 | 41.79776 | 12.25446 | 14 ft | 4 kts | 76° |
| 2026-05-07 06:38 | 41.79765 | 12.25428 | 18 ft | 1 kts | 25° |
| 2026-05-07 06:39 | 41.79779 | 12.25437 | 14 ft | 4 kts | 25° |
| 2026-05-07 06:39 | 41.79804 | 12.25452 | 14 ft | 4 kts | 25° |
| 2026-05-07 06:39 | 41.79828 | 12.25468 | 14 ft | 4 kts | 25° |
| 2026-05-07 06:39 | 41.79853 | 12.25483 | 15 ft | 4 kts | 25° |
| 2026-05-07 06:40 | 41.79877 | 12.25498 | 14 ft | 4 kts | 25° |
| 2026-05-07 06:40 | 41.79891 | 12.25507 | 16 ft | 0 kts | 25° |
| 2026-05-07 06:42 | 41.79921 | 12.25526 | 14 ft | 8 kts | 24° |
| 2026-05-07 06:42 | 41.79963 | 12.25504 | 15 ft | 6 kts | 307° |
| 2026-05-07 06:42 | 41.79994 | 12.25418 | 14 ft | 13 kts | 294° |
| 2026-05-07 06:43 | 41.80049 | 12.25337 | 14 ft | 11 kts | 357° |
| 2026-05-07 06:43 | 41.80124 | 12.25367 | 14 ft | 12 kts | 20° |
| 2026-05-07 06:43 | 41.80209 | 12.25409 | 15 ft | 14 kts | 20° |
| 2026-05-07 06:43 | 41.80298 | 12.25459 | 16 ft | 14 kts | 33° |
| 2026-05-07 06:44 | 41.80347 | 12.25583 | 17 ft | 16 kts | 69° |
| 2026-05-07 06:44 | 41.80389 | 12.25733 | 16 ft | 18 kts | 70° |
| 2026-05-07 06:44 | 41.80435 | 12.25901 | 15 ft | 20 kts | 70° |
| 2026-05-07 06:44 | 41.80485 | 12.26082 | 15 ft | 21 kts | 70° |
| 2026-05-07 06:45 | 41.80537 | 12.26270 | 16 ft | 22 kts | 70° |
| 2026-05-07 06:45 | 41.80592 | 12.26470 | 16 ft | 24 kts | 70° |
| 2026-05-07 06:45 | 41.80650 | 12.26681 | 15 ft | 25 kts | 69° |
| 2026-05-07 06:45 | 41.80711 | 12.26901 | 14 ft | 26 kts | 70° |
| 2026-05-07 06:46 | 41.80793 | 12.27042 | 13 ft | 20 kts | 1° |
| 2026-05-07 06:46 | 41.80928 | 12.26982 | 13 ft | 21 kts | 338° |
| 2026-05-07 06:46 | 41.80936 | 12.26855 | 13 ft | 22 kts | 250° |
| 2026-05-07 06:46 | 41.80788 | 12.26310 | 21 ft | 99 kts | 250° |
| 2026-05-07 06:47 | 41.80477 | 12.25180 | 18 ft | 157 kts | 250° |
| 2026-05-07 06:47 | 41.80098 | 12.23768 | 536 ft | 159 kts | 249° |
| 2026-05-07 06:47 | 41.79704 | 12.22380 | 1238 ft | 159 kts | 247° |
| 2026-05-07 06:47 | 41.79181 | 12.20994 | 1650 ft | 176 kts | 229° |
| 2026-05-07 06:48 | 41.78238 | 12.19835 | 2005 ft | 196 kts | 216° |
| 2026-05-07 06:48 | 41.77135 | 12.18677 | 2660 ft | 202 kts | 218° |
| 2026-05-07 06:48 | 41.76025 | 12.17510 | 3454 ft | 205 kts | 211° |
| 2026-05-07 06:48 | 41.74666 | 12.16855 | 4076 ft | 217 kts | 187° |
| 2026-05-07 06:49 | 41.73067 | 12.16846 | 4463 ft | 242 kts | 179° |
| 2026-05-07 06:49 | 41.71305 | 12.16926 | 4975 ft | 262 kts | 179° |
| 2026-05-07 06:49 | 41.69456 | 12.17084 | 5796 ft | 270 kts | 172° |
| 2026-05-07 06:49 | 41.67694 | 12.18044 | 6651 ft | 281 kts | 146° |
| 2026-05-07 06:50 | 41.66389 | 12.20008 | 7464 ft | 289 kts | 118° |
| 2026-05-07 06:50 | 41.65888 | 12.22622 | 8282 ft | 296 kts | 92° |
| 2026-05-07 06:50 | 41.65897 | 12.25400 | 9118 ft | 301 kts | 89° |
| 2026-05-07 06:50 | 41.65931 | 12.28229 | 9921 ft | 307 kts | 89° |
| 2026-05-07 06:51 | 41.65968 | 12.31147 | 10402 ft | 325 kts | 90° |
| 2026-05-07 06:51 | 41.65998 | 12.34277 | 10666 ft | 348 kts | 90° |
| 2026-05-07 06:51 | 41.66024 | 12.37556 | 11230 ft | 357 kts | 90° |
| 2026-05-07 06:51 | 41.66048 | 12.40908 | 11952 ft | 362 kts | 90° |
| 2026-05-07 06:52 | 41.66069 | 12.44292 | 12725 ft | 366 kts | 90° |
| 2026-05-07 06:52 | 41.66090 | 12.47718 | 13474 ft | 370 kts | 91° |
| 2026-05-07 06:52 | 41.66108 | 12.51181 | 14163 ft | 375 kts | 91° |
| 2026-05-07 06:52 | 41.66120 | 12.54678 | 14811 ft | 378 kts | 91° |
| 2026-05-07 06:53 | 41.66132 | 12.58214 | 15457 ft | 382 kts | 91° |
| 2026-05-07 06:53 | 41.66144 | 12.61790 | 16103 ft | 386 kts | 91° |
| 2026-05-07 06:53 | 41.66155 | 12.65397 | 16738 ft | 390 kts | 92° |
| 2026-05-07 06:53 | 41.66166 | 12.69045 | 17370 ft | 394 kts | 92° |
| 2026-05-07 06:54 | 41.66181 | 12.72732 | 18001 ft | 398 kts | 92° |
| 2026-05-07 06:54 | 41.66194 | 12.76452 | 18586 ft | 402 kts | 92° |
| 2026-05-07 06:54 | 41.66145 | 12.80154 | 19085 ft | 406 kts | 95° |
| 2026-05-07 06:54 | 41.66026 | 12.83937 | 19621 ft | 409 kts | 96° |
| 2026-05-07 06:55 | 41.65866 | 12.87758 | 20156 ft | 413 kts | 96° |
| 2026-05-07 06:55 | 41.65692 | 12.91607 | 20711 ft | 417 kts | 96° |
| 2026-05-07 06:55 | 41.65518 | 12.95495 | 21264 ft | 421 kts | 96° |
| 2026-05-07 06:55 | 41.65355 | 12.99419 | 21757 ft | 425 kts | 96° |
| 2026-05-07 06:56 | 41.65203 | 13.03383 | 22261 ft | 428 kts | 95° |
| 2026-05-07 06:56 | 41.65058 | 13.07379 | 22777 ft | 432 kts | 95° |
| 2026-05-07 06:56 | 41.64916 | 13.11401 | 23285 ft | 436 kts | 95° |
| 2026-05-07 06:56 | 41.64770 | 13.15468 | 23746 ft | 439 kts | 95° |
| 2026-05-07 06:57 | 41.64621 | 13.19558 | 24136 ft | 442 kts | 95° |
| 2026-05-07 06:57 | 41.64435 | 13.23669 | 24550 ft | 443 kts | 99° |
| 2026-05-07 06:57 | 41.63855 | 13.27701 | 24964 ft | 441 kts | 109° |
| 2026-05-07 06:57 | 41.62800 | 13.31540 | 25366 ft | 439 kts | 118° |
| 2026-05-07 06:58 | 41.61309 | 13.35080 | 25781 ft | 436 kts | 128° |
| 2026-05-07 06:58 | 41.59601 | 13.38437 | 26185 ft | 438 kts | 128° |
| 2026-05-07 06:58 | 41.57889 | 13.41812 | 26588 ft | 440 kts | 128° |
| 2026-05-07 06:58 | 41.56171 | 13.45207 | 26974 ft | 442 kts | 128° |
| 2026-05-07 06:59 | 41.54449 | 13.48616 | 27356 ft | 444 kts | 128° |
| 2026-05-07 06:59 | 41.52719 | 13.52042 | 27720 ft | 446 kts | 127° |
| 2026-05-07 06:59 | 41.50982 | 13.55485 | 28096 ft | 448 kts | 127° |
| 2026-05-07 06:59 | 41.49237 | 13.58936 | 28458 ft | 450 kts | 127° |
| 2026-05-07 07:00 | 41.47481 | 13.62400 | 28801 ft | 452 kts | 127° |
| 2026-05-07 07:00 | 41.45750 | 13.65909 | 29138 ft | 455 kts | 123° |
| 2026-05-07 07:00 | 41.44339 | 13.69713 | 29464 ft | 461 kts | 114° |
| 2026-05-07 07:00 | 41.43336 | 13.73785 | 29780 ft | 465 kts | 109° |
| 2026-05-07 07:01 | 41.42432 | 13.77931 | 30086 ft | 467 kts | 109° |
| 2026-05-07 07:01 | 41.41520 | 13.82091 | 30341 ft | 469 kts | 109° |
| 2026-05-07 07:01 | 41.40602 | 13.86262 | 30566 ft | 470 kts | 109° |
| 2026-05-07 07:01 | 41.39676 | 13.90444 | 30841 ft | 471 kts | 109° |
| 2026-05-07 07:02 | 41.38746 | 13.94625 | 30995 ft | 471 kts | 109° |
| 2026-05-07 07:02 | 41.37829 | 13.98747 | 31035 ft | 457 kts | 109° |
| 2026-05-07 07:02 | 41.36058 | 14.06686 | 31032 ft | 447 kts | 109° |
| 2026-05-07 07:03 | 41.34271 | 14.14659 | 31030 ft | 446 kts | 109° |
| 2026-05-07 07:03 | 41.32492 | 14.22565 | 31027 ft | 446 kts | 110° |
| 2026-05-07 07:04 | 41.30728 | 14.30393 | 31030 ft | 444 kts | 110° |
| 2026-05-07 07:04 | 41.28947 | 14.38258 | 31009 ft | 444 kts | 109° |
| 2026-05-07 07:05 | 41.27454 | 14.44847 | 31005 ft | 444 kts | 109° |
| 2026-05-07 07:05 | 41.25678 | 14.52708 | 31008 ft | 444 kts | 109° |
| 2026-05-07 07:06 | 41.23888 | 14.60570 | 31013 ft | 445 kts | 109° |
| 2026-05-07 07:06 | 41.22084 | 14.68429 | 31014 ft | 445 kts | 109° |
| 2026-05-07 07:07 | 41.20289 | 14.76231 | 31017 ft | 445 kts | 109° |
| 2026-05-07 07:07 | 41.19377 | 14.80184 | 30663 ft | 450 kts | 109° |
| 2026-05-07 07:07 | 41.18453 | 14.84183 | 29746 ft | 455 kts | 109° |
| 2026-05-07 07:08 | 41.17531 | 14.88172 | 29194 ft | 448 kts | 109° |
| 2026-05-07 07:08 | 41.16621 | 14.92104 | 28612 ft | 443 kts | 109° |
| 2026-05-07 07:08 | 41.15718 | 14.95989 | 28043 ft | 439 kts | 110° |
| 2026-05-07 07:08 | 41.14822 | 14.99837 | 27485 ft | 435 kts | 110° |
| 2026-05-07 07:09 | 41.13932 | 15.03653 | 26944 ft | 431 kts | 110° |
| 2026-05-07 07:09 | 41.13050 | 15.07422 | 26413 ft | 427 kts | 110° |
| 2026-05-07 07:09 | 41.12169 | 15.11170 | 25899 ft | 423 kts | 110° |
| 2026-05-07 07:09 | 41.11297 | 15.14887 | 25392 ft | 420 kts | 110° |
| 2026-05-07 07:10 | 41.10529 | 15.18609 | 24909 ft | 418 kts | 104° |
| 2026-05-07 07:10 | 41.09926 | 15.22364 | 24438 ft | 415 kts | 104° |
| 2026-05-07 07:10 | 41.09324 | 15.26090 | 23965 ft | 413 kts | 104° |
| 2026-05-07 07:10 | 41.08721 | 15.29800 | 23469 ft | 411 kts | 105° |
| 2026-05-07 07:11 | 41.08117 | 15.33486 | 22965 ft | 407 kts | 105° |
| 2026-05-07 07:11 | 41.07518 | 15.37136 | 22484 ft | 403 kts | 105° |
| 2026-05-07 07:11 | 41.06923 | 15.40754 | 22018 ft | 401 kts | 105° |
| 2026-05-07 07:11 | 41.06329 | 15.44352 | 21541 ft | 398 kts | 105° |
| 2026-05-07 07:12 | 41.05739 | 15.47926 | 21057 ft | 396 kts | 105° |
| 2026-05-07 07:12 | 41.05151 | 15.51486 | 20577 ft | 394 kts | 106° |
| 2026-05-07 07:12 | 41.04565 | 15.55006 | 20099 ft | 392 kts | 106° |
| 2026-05-07 07:12 | 41.03974 | 15.58541 | 19615 ft | 391 kts | 106° |
| 2026-05-07 07:13 | 41.03384 | 15.62056 | 19131 ft | 391 kts | 106° |
| 2026-05-07 07:13 | 41.02795 | 15.65563 | 18649 ft | 390 kts | 106° |
| 2026-05-07 07:13 | 41.02068 | 15.69003 | 18164 ft | 386 kts | 115° |
| 2026-05-07 07:13 | 41.00893 | 15.72146 | 17681 ft | 377 kts | 127° |
| 2026-05-07 07:14 | 40.99369 | 15.74930 | 17224 ft | 371 kts | 132° |
| 2026-05-07 07:14 | 40.97806 | 15.77639 | 16777 ft | 369 kts | 132° |
| 2026-05-07 07:14 | 40.96256 | 15.80327 | 16334 ft | 367 kts | 131° |
| 2026-05-07 07:14 | 40.94736 | 15.82967 | 15906 ft | 365 kts | 131° |
| 2026-05-07 07:15 | 40.93207 | 15.85628 | 15464 ft | 363 kts | 131° |
| 2026-05-07 07:15 | 40.91687 | 15.88280 | 15038 ft | 361 kts | 131° |
| 2026-05-07 07:15 | 40.90173 | 15.90918 | 14611 ft | 359 kts | 131° |
| 2026-05-07 07:15 | 40.88663 | 15.93537 | 14265 ft | 355 kts | 131° |
| 2026-05-07 07:16 | 40.87189 | 15.96091 | 14142 ft | 344 kts | 131° |
| 2026-05-07 07:16 | 40.85760 | 15.98567 | 14019 ft | 333 kts | 131° |
| 2026-05-07 07:16 | 40.84418 | 16.01008 | 13888 ft | 326 kts | 123° |
| 2026-05-07 07:16 | 40.83597 | 16.03767 | 13763 ft | 323 kts | 103° |
| 2026-05-07 07:17 | 40.83477 | 16.06687 | 13486 ft | 316 kts | 83° |
| 2026-05-07 07:17 | 40.84054 | 16.09481 | 13128 ft | 315 kts | 68° |
| 2026-05-07 07:17 | 40.84846 | 16.12170 | 12821 ft | 314 kts | 68° |
| 2026-05-07 07:17 | 40.85626 | 16.14843 | 12468 ft | 309 kts | 68° |
| 2026-05-07 07:18 | 40.86664 | 16.17313 | 11676 ft | 309 kts | 43° |
| 2026-05-07 07:18 | 40.88427 | 16.18767 | 11145 ft | 292 kts | 11° |
| 2026-05-07 07:18 | 40.90379 | 16.18938 | 10614 ft | 275 kts | 342° |
| 2026-05-07 07:18 | 40.92139 | 16.18156 | 10193 ft | 262 kts | 334° |
| 2026-05-07 07:19 | 40.93836 | 16.17313 | 9778 ft | 262 kts | 338° |
| 2026-05-07 07:19 | 40.95643 | 16.17189 | 9339 ft | 264 kts | 13° |
| 2026-05-07 07:19 | 40.97190 | 16.18470 | 8952 ft | 268 kts | 50° |
| 2026-05-07 07:19 | 40.98043 | 16.20661 | 8572 ft | 270 kts | 68° |
| 2026-05-07 07:20 | 40.98716 | 16.22979 | 8175 ft | 270 kts | 69° |
| 2026-05-07 07:20 | 40.99376 | 16.25298 | 7802 ft | 269 kts | 69° |
| 2026-05-07 07:20 | 41.00029 | 16.27609 | 7441 ft | 268 kts | 69° |
| 2026-05-07 07:20 | 41.00677 | 16.29889 | 7091 ft | 260 kts | 69° |
| 2026-05-07 07:21 | 41.01308 | 16.32099 | 6763 ft | 254 kts | 69° |
| 2026-05-07 07:21 | 41.01933 | 16.34272 | 6428 ft | 250 kts | 70° |
| 2026-05-07 07:21 | 41.02544 | 16.36396 | 6084 ft | 243 kts | 69° |
| 2026-05-07 07:21 | 41.03141 | 16.38476 | 5767 ft | 241 kts | 69° |
| 2026-05-07 07:22 | 41.03733 | 16.40550 | 5459 ft | 241 kts | 69° |
| 2026-05-07 07:22 | 41.04325 | 16.42624 | 5111 ft | 239 kts | 70° |
| 2026-05-07 07:22 | 41.04897 | 16.44627 | 4804 ft | 232 kts | 70° |
| 2026-05-07 07:22 | 41.05453 | 16.46578 | 4536 ft | 221 kts | 71° |
| 2026-05-07 07:23 | 41.05987 | 16.48445 | 4211 ft | 212 kts | 71° |
| 2026-05-07 07:23 | 41.06499 | 16.50233 | 3934 ft | 203 kts | 72° |
| 2026-05-07 07:23 | 41.06989 | 16.51943 | 3674 ft | 194 kts | 74° |
| 2026-05-07 07:23 | 41.07452 | 16.53560 | 3421 ft | 181 kts | 74° |
| 2026-05-07 07:24 | 41.07884 | 16.55071 | 3217 ft | 169 kts | 74° |
| 2026-05-07 07:24 | 41.08290 | 16.56492 | 2993 ft | 160 kts | 76° |
| 2026-05-07 07:24 | 41.08677 | 16.57852 | 2761 ft | 156 kts | 76° |
| 2026-05-07 07:24 | 41.09057 | 16.59187 | 2554 ft | 154 kts | 77° |
| 2026-05-07 07:25 | 41.09816 | 16.61852 | 2137 ft | 155 kts | 78° |
| 2026-05-07 07:25 | 41.10197 | 16.63192 | 1934 ft | 155 kts | 76° |
| 2026-05-07 07:25 | 41.10574 | 16.64512 | 1735 ft | 151 kts | 77° |
| 2026-05-07 07:26 | 41.10940 | 16.65797 | 1544 ft | 150 kts | 77° |
| 2026-05-07 07:26 | 41.11307 | 16.67073 | 1371 ft | 146 kts | 76° |
| 2026-05-07 07:26 | 41.11672 | 16.68331 | 1158 ft | 146 kts | 76° |
| 2026-05-07 07:26 | 41.12069 | 16.69571 | 891 ft | 147 kts | 72° |
| 2026-05-07 07:27 | 41.12415 | 16.70817 | 749 ft | 143 kts | 81° |
| 2026-05-07 07:27 | 41.12706 | 16.72067 | 514 ft | 140 kts | 77° |
| 2026-05-07 07:27 | 41.13074 | 16.73285 | 335 ft | 144 kts | 71° |
| 2026-05-07 07:27 | 41.13421 | 16.74509 | 152 ft | 139 kts | 77° |
| 2026-05-07 07:28 | 41.13686 | 16.75486 | 140 ft | 73 kts | 69° |
| 2026-05-07 07:28 | 41.13844 | 16.76044 | 136 ft | 69 kts | 70° |
| 2026-05-07 07:28 | 41.13968 | 16.76483 | 125 ft | 30 kts | 69° |
| 2026-05-07 07:28 | 41.13986 | 16.76652 | 121 ft | 11 kts | 106° |
| 2026-05-07 07:29 | 41.13937 | 16.76708 | 124 ft | 11 kts | 190° |
| 2026-05-07 07:29 | 41.13872 | 16.76656 | 126 ft | 10 kts | 213° |
| 2026-05-07 07:29 | 41.13847 | 16.76632 | 128 ft | 0 kts | 217° |
| 2026-05-07 07:30 | 41.13799 | 16.76564 | 135 ft | 17 kts | 212° |
| 2026-05-07 07:30 | 41.13732 | 16.76601 | 136 ft | 11 kts | 98° |
| 2026-05-07 07:30 | 41.13751 | 16.76692 | 136 ft | 10 kts | 68° |
| 2026-05-07 07:31 | 41.13775 | 16.76788 | 133 ft | 12 kts | 89° |
| 2026-05-07 07:31 | 41.13773 | 16.76897 | 132 ft | 12 kts | 75° |
| 2026-05-07 07:31 | 41.13810 | 16.76952 | 129 ft | 7 kts | 348° |
| 2026-05-07 07:31 | 41.13821 | 16.76951 | 129 ft | 2 kts | 359° |
| 2026-05-07 07:32 | 41.13836 | 16.76955 | 127 ft | 3 kts | 17° |
| 2026-05-07 07:32 | 41.13844 | 16.76959 | 129 ft | 0 kts | 24° |